Middle Bass, Ohio
Current Conditions -  °F | °C
As of 1:32 AM on Saturday 25 Oct 2014 (Local Time) from KPCW Reporting Station
Clear Clear  
Wind Chill: 52°   Ceiling: Unl
Heat Index: 52°   Visibility: 10mi
Dew Point: 46°   Wind: 5mph
Humidity: 82%   Direction: 220°SW
Pressure: 29.96"   Gusts: NA
Location:  41.68°N, 82.81°W
Report Text: KPCW 250532Z AUTO 22004KT 10SM CLR 11/08 A2996 RMK AO2 $
Loading
Personal Weather Stations






























Interactive Weather Map
Tropical Storm Tracking
New forecast layout! Learn more

10-Day Weather Forecast

Advertisements
Track Severe Weather on mobile